Time;durP1;ratioP1;P1;durP2;ratioP2;P2;SDS_P1;SDS_P2;PMS_P1;PMS_P2;Temp;Humidity;BMP_temperature;BMP_pressure;BME280_temperature;BME280_humidity;BME280_pressure;Samples;Min_cycle;Max_cycle;Signal;HPM_P1;HPM_P2
2022/05/18 00:01:59;;;;;;;4.23;1.33;;;14.10;99.90;;;;;;5090348;28;20246;-66
2022/05/18 00:04:25;;;;;;;2.17;1.73;;;14.00;99.90;;;;;;5091005;28;20636;-66
2022/05/18 00:06:50;;;;;;;1.33;1.23;;;14.00;99.90;;;;;;5090452;28;20455;-66
2022/05/18 00:09:16;;;;;;;4.73;1.60;;;14.00;99.90;;;;;;5072363;28;20457;-66
2022/05/18 00:11:41;;;;;;;3.00;1.70;;;14.00;99.90;;;;;;5090431;28;20582;-66
2022/05/18 00:14:07;;;;;;;1.57;1.47;;;14.00;99.90;;;;;;5070454;28;20178;-66
2022/05/18 00:16:32;;;;;;;3.33;1.60;;;14.00;99.90;;;;;;5070299;28;20276;-66
2022/05/18 00:18:58;;;;;;;1.70;1.40;;;14.00;99.90;;;;;;5070528;28;20166;-66
2022/05/18 00:21:24;;;;;;;1.43;1.33;;;14.10;99.90;;;;;;5070153;28;20704;-66
2022/05/18 00:23:49;;;;;;;2.27;1.93;;;14.10;99.90;;;;;;5088901;28;20173;-65
2022/05/18 00:26:15;;;;;;;3.07;1.70;;;14.10;99.90;;;;;;5090287;28;20170;-66
2022/05/18 00:28:40;;;;;;;4.20;1.57;;;14.10;99.90;;;;;;5090572;28;20177;-66
2022/05/18 00:31:06;;;;;;;2.97;1.60;;;14.00;99.90;;;;;;5091904;28;20280;-66
2022/05/18 00:33:31;;;;;;;1.93;1.50;;;14.00;99.90;;;;;;5091123;28;20538;-67
2022/05/18 00:35:57;;;;;;;3.17;1.50;;;13.90;99.90;;;;;;5090334;28;20177;-66
2022/05/18 00:38:23;;;;;;;1.47;1.37;;;13.90;99.90;;;;;;5090830;28;20176;-66
2022/05/18 00:40:50;;;;;;;3.03;1.57;;;13.90;99.90;;;;;;5090421;28;20459;-66
2022/05/18 00:43:34;;;;;;;1.57;1.43;;;13.90;99.90;;;;;;5090473;28;20538;-66
2022/05/18 00:46:03;;;;;;;2.80;2.03;;;13.80;99.90;;;;;;5090354;28;20817;-66
2022/05/18 00:48:29;;;;;;;1.70;1.50;;;13.80;99.90;;;;;;5090175;28;20455;-67
2022/05/18 00:50:57;;;;;;;2.23;1.20;;;13.70;99.90;;;;;;5090357;28;20416;-66
2022/05/18 00:53:27;;;;;;;2.60;1.70;;;13.70;99.90;;;;;;5092180;28;20395;-66
2022/05/18 00:56:00;;;;;;;2.37;1.20;;;13.70;99.90;;;;;;5094263;28;20407;-66
2022/05/18 00:58:53;;;;;;;1.43;1.33;;;13.70;99.90;;;;;;5094409;28;20498;-67
2022/05/18 01:01:19;;;;;;;2.97;1.50;;;13.60;99.90;;;;;;5069024;28;20787;-67
2022/05/18 01:03:47;;;;;;;1.30;1.13;;;13.60;99.90;;;;;;5074019;28;20457;-66
2022/05/18 01:06:15;;;;;;;1.30;1.20;;;13.50;99.90;;;;;;5093310;28;20414;-66
2022/05/18 01:09:07;;;;;;;3.43;1.40;;;13.50;99.90;;;;;;5102160;28;20452;-67
2022/05/18 01:11:35;;;;;;;2.57;1.33;;;13.40;99.90;;;;;;5082515;28;20471;-67
2022/05/18 01:14:03;;;;;;;2.80;1.63;;;13.40;99.90;;;;;;5093824;28;20403;-67
2022/05/18 01:16:31;;;;;;;1.80;1.20;;;13.30;99.90;;;;;;5093753;28;20461;-67
2022/05/18 01:18:57;;;;;;;1.43;1.10;;;13.40;99.90;;;;;;5075608;28;20407;-65
2022/05/18 01:21:34;;;;;;;1.67;1.57;;;13.20;99.90;;;;;;5094058;28;20713;-66
2022/05/18 01:24:13;;;;;;;5.50;1.47;;;13.20;99.90;;;;;;5093966;28;20404;-66
2022/05/18 01:26:44;;;;;;;1.50;1.23;;;13.20;99.90;;;;;;5093758;28;20431;-67
2022/05/18 01:29:11;;;;;;;1.47;1.37;;;13.20;99.90;;;;;;5094366;28;20520;-67
2022/05/18 01:31:51;;;;;;;2.80;1.40;;;13.10;99.90;;;;;;5093838;28;20438;-66
2022/05/18 01:34:20;;;;;;;2.00;1.80;;;13.10;99.90;;;;;;5093921;28;20430;-67
2022/05/18 01:36:46;;;;;;;2.13;1.93;;;13.10;99.90;;;;;;5093979;28;20456;-67
2022/05/18 01:39:17;;;;;;;1.60;1.50;;;13.10;99.90;;;;;;5093794;28;20880;-66
2022/05/18 01:42:00;;;;;;;4.70;2.00;;;13.00;99.90;;;;;;5093717;28;20415;-67
2022/05/18 01:44:26;;;;;;;4.53;1.20;;;13.00;99.80;;;;;;5093811;28;20477;-67
2022/05/18 01:46:52;;;;;;;3.23;1.00;;;13.00;99.60;;;;;;5093675;28;20443;-66
2022/05/18 01:49:18;;;;;;;1.73;1.10;;;13.00;99.40;;;;;;5093689;28;20423;-68
2022/05/18 01:51:47;;;;;;;1.07;0.97;;;13.00;99.20;;;;;;5093492;28;20659;-66
2022/05/18 01:54:13;;;;;;;7.60;1.83;;;13.00;99.00;;;;;;5093726;28;20517;-67
2022/05/18 01:56:38;;;;;;;1.20;1.10;;;12.90;98.40;;;;;;5093750;28;20457;-67
2022/05/18 01:59:04;;;;;;;2.63;1.03;;;12.90;98.10;;;;;;5093716;28;20173;-66
2022/05/18 02:01:30;;;;;;;1.20;1.00;;;12.90;98.40;;;;;;5093301;28;20292;-66
2022/05/18 02:03:56;;;;;;;4.97;1.13;;;12.90;98.10;;;;;;5092299;28;20170;-67
2022/05/18 02:06:22;;;;;;;1.63;1.47;;;12.90;97.80;;;;;;5092778;28;20538;-67
2022/05/18 02:08:47;;;;;;;1.70;1.00;;;12.90;97.20;;;;;;5093345;28;20407;-66
2022/05/18 02:11:15;;;;;;;1.50;0.90;;;12.80;96.90;;;;;;5093078;28;20269;-66
2022/05/18 02:13:41;;;;;;;1.70;1.10;;;12.80;96.50;;;;;;5093363;28;20399;-66
2022/05/18 02:16:07;;;;;;;1.83;1.07;;;12.70;96.70;;;;;;5093062;28;20506;-66
2022/05/18 02:18:33;;;;;;;1.17;1.00;;;12.70;96.40;;;;;;5093232;28;20404;-66
2022/05/18 02:21:02;;;;;;;1.07;0.97;;;12.70;95.90;;;;;;5092742;28;20504;-66
2022/05/18 02:23:28;;;;;;;2.90;0.97;;;12.70;95.60;;;;;;5093040;28;20162;-65
2022/05/18 02:25:53;;;;;;;3.30;1.30;;;12.70;95.30;;;;;;5092834;28;20396;-66
2022/05/18 02:28:18;;;;;;;1.07;0.97;;;12.60;95.00;;;;;;5092630;28;20269;-66
2022/05/18 02:30:44;;;;;;;1.73;1.10;;;12.60;94.70;;;;;;5092489;28;20194;-66
2022/05/18 02:33:09;;;;;;;1.10;1.00;;;12.50;94.80;;;;;;5092573;28;20162;-65
2022/05/18 02:35:36;;;;;;;1.97;1.13;;;12.50;94.40;;;;;;5092525;28;20662;-66
2022/05/18 02:38:02;;;;;;;1.57;0.90;;;12.50;94.40;;;;;;5092434;28;20165;-66
2022/05/18 02:40:28;;;;;;;2.13;1.20;;;12.40;94.30;;;;;;5092201;28;20476;-66
2022/05/18 02:42:53;;;;;;;1.47;1.10;;;12.40;94.70;;;;;;5092228;28;20219;-66
2022/05/18 02:45:19;;;;;;;1.80;1.10;;;12.40;94.60;;;;;;5092169;28;20249;-67
2022/05/18 02:47:44;;;;;;;0.90;0.80;;;12.40;94.10;;;;;;5092005;28;20193;-66
2022/05/18 02:50:10;;;;;;;1.10;1.00;;;12.30;93.90;;;;;;5092264;28;20193;-66
2022/05/18 02:52:37;;;;;;;0.90;0.70;;;12.30;93.90;;;;;;5092192;28;20158;-65
2022/05/18 02:57:48;;;;;;;1.20;1.00;;;12.20;93.50;;;;;;5092176;28;20390;-66
2022/05/18 03:00:14;;;;;;;1.03;0.93;;;12.20;93.70;;;;;;5092133;28;20408;-65
2022/05/18 03:02:39;;;;;;;1.13;0.93;;;12.20;93.60;;;;;;5092080;28;20158;-65
2022/05/18 03:05:05;;;;;;;1.83;0.90;;;12.10;93.40;;;;;;5091980;28;20403;-65
2022/05/18 03:07:31;;;;;;;1.00;0.83;;;12.10;93.90;;;;;;5091756;28;20193;-65
2022/05/18 03:09:56;;;;;;;1.57;1.47;;;12.10;93.60;;;;;;5091583;28;20173;-65
2022/05/18 03:12:21;;;;;;;1.10;0.97;;;12.00;93.60;;;;;;5092156;28;20714;-67
2022/05/18 03:14:47;;;;;;;2.80;1.10;;;12.00;93.70;;;;;;5092045;28;20172;-66
2022/05/18 03:17:13;;;;;;;1.30;0.93;;;12.00;93.60;;;;;;5091612;28;20219;-66
2022/05/18 03:19:38;;;;;;;1.60;1.10;;;11.90;93.70;;;;;;5091967;28;20192;-66
2022/05/18 03:24:49;;;;;;;1.40;1.10;;;11.90;93.00;;;;;;5092266;28;20168;-66
2022/05/18 03:27:15;;;;;;;0.83;0.83;;;11.90;93.00;;;;;;5092444;28;20451;-66
2022/05/18 03:29:40;;;;;;;1.20;1.10;;;11.90;93.20;;;;;;5091988;28;20544;-66
2022/05/18 03:32:06;;;;;;;1.60;1.00;;;11.80;93.10;;;;;;5091756;28;20514;-66
2022/05/18 03:34:33;;;;;;;1.03;0.90;;;11.80;93.20;;;;;;5092226;28;20580;-69
2022/05/18 03:36:59;;;;;;;1.00;0.90;;;11.80;92.90;;;;;;5092543;28;20402;-66
2022/05/18 03:39:24;;;;;;;1.43;1.33;;;11.80;92.80;;;;;;5092420;28;20400;-67
2022/05/18 03:41:50;;;;;;;0.97;0.93;;;11.80;92.80;;;;;;5092091;28;20906;-66
2022/05/18 03:44:15;;;;;;;1.57;0.93;;;11.90;92.90;;;;;;5091920;28;20177;-66
2022/05/18 03:46:41;;;;;;;1.10;1.00;;;11.80;92.50;;;;;;5092087;28;20193;-66
2022/05/18 03:49:07;;;;;;;1.17;0.80;;;11.80;92.60;;;;;;5091983;28;20173;-67
2022/05/18 03:51:32;;;;;;;0.80;0.80;;;11.80;92.60;;;;;;5092396;28;20664;-66
2022/05/18 03:53:58;;;;;;;0.90;0.90;;;11.90;92.30;;;;;;5092172;28;20161;-65
2022/05/18 03:56:24;;;;;;;0.80;0.80;;;11.90;92.20;;;;;;5092110;28;20184;-66
2022/05/18 03:58:50;;;;;;;1.20;0.90;;;11.90;92.00;;;;;;5092185;28;20271;-65
2022/05/18 04:01:15;;;;;;;2.40;0.90;;;11.90;92.00;;;;;;5092244;28;20435;-66
2022/05/18 04:03:43;;;;;;;0.90;0.90;;;12.00;91.70;;;;;;5092098;28;20188;-66
2022/05/18 04:06:09;;;;;;;4.30;0.90;;;12.00;91.40;;;;;;5091772;28;20184;-66
2022/05/18 04:08:35;;;;;;;1.60;1.17;;;12.00;91.30;;;;;;5091941;28;20439;-66
2022/05/18 04:11:01;;;;;;;4.27;1.10;;;12.00;91.20;;;;;;5091523;28;20711;-66
2022/05/18 04:13:26;;;;;;;1.70;1.00;;;12.10;91.30;;;;;;5091796;28;20450;-66
2022/05/18 04:15:53;;;;;;;1.33;0.90;;;12.10;91.40;;;;;;5091690;28;20176;-66
2022/05/18 04:18:19;;;;;;;1.53;1.00;;;12.20;91.20;;;;;;5092241;28;20169;-66
2022/05/18 04:20:45;;;;;;;0.90;0.77;;;12.20;90.90;;;;;;5091596;28;20852;-67
2022/05/18 04:23:12;;;;;;;0.97;0.93;;;12.20;90.70;;;;;;5092094;28;20173;-67
2022/05/18 04:25:39;;;;;;;1.10;0.90;;;12.30;90.90;;;;;;5091905;28;20173;-67
2022/05/18 04:28:05;;;;;;;1.03;0.83;;;12.40;90.70;;;;;;5093119;28;20445;-67
2022/05/18 04:30:31;;;;;;;1.17;1.07;;;12.40;90.40;;;;;;5095862;28;20430;-66
2022/05/18 04:32:58;;;;;;;3.67;1.20;;;12.50;90.60;;;;;;5095475;28;20721;-66
2022/05/18 04:35:26;;;;;;;3.00;1.13;;;12.50;90.40;;;;;;5095838;28;20400;-66
2022/05/18 04:37:52;;;;;;;0.80;0.70;;;12.50;90.50;;;;;;5095533;28;20404;-66
2022/05/18 04:40:18;;;;;;;1.23;1.10;;;12.40;90.80;;;;;;5095529;28;20794;-67
2022/05/18 04:42:44;;;;;;;0.93;0.83;;;12.40;90.40;;;;;;5095486;28;20413;-66
2022/05/18 04:45:12;;;;;;;1.27;0.90;;;12.40;90.30;;;;;;5095127;28;20490;-66
2022/05/18 04:47:37;;;;;;;0.97;0.90;;;12.60;90.80;;;;;;5095244;28;20208;-67
2022/05/18 04:50:04;;;;;;;1.50;1.00;;;12.70;90.50;;;;;;5094885;28;20400;-66
2022/05/18 04:52:29;;;;;;;0.90;0.90;;;12.70;90.30;;;;;;5094984;28;20239;-66
2022/05/18 04:54:55;;;;;;;0.80;0.80;;;12.90;90.30;;;;;;5094827;28;20399;-66
2022/05/18 04:57:21;;;;;;;1.43;1.10;;;12.90;90.20;;;;;;5094910;28;20640;-66
2022/05/18 04:59:48;;;;;;;1.20;0.93;;;13.00;90.00;;;;;;5094864;28;20415;-68
2022/05/18 05:02:13;;;;;;;1.20;0.90;;;13.20;88.10;;;;;;5095263;28;20263;-66
2022/05/18 05:04:39;;;;;;;1.87;1.17;;;12.90;89.60;;;;;;5095481;28;20415;-66
2022/05/18 05:07:05;;;;;;;1.13;0.83;;;13.20;90.00;;;;;;5094330;28;20439;-66
2022/05/18 05:09:30;;;;;;;1.20;1.03;;;13.40;90.00;;;;;;5095479;28;20165;-66
2022/05/18 05:11:56;;;;;;;1.10;1.00;;;13.40;88.10;;;;;;5095212;28;20193;-65
2022/05/18 05:14:22;;;;;;;2.07;1.10;;;13.40;88.40;;;;;;5094882;28;20214;-66
2022/05/18 05:16:48;;;;;;;1.17;1.07;;;13.50;89.60;;;;;;5094774;28;20847;-65
2022/05/18 05:19:14;;;;;;;0.90;0.80;;;13.60;88.50;;;;;;5094559;28;20502;-66
2022/05/18 05:21:42;;;;;;;0.80;0.80;;;13.70;88.00;;;;;;5094614;28;20251;-66
2022/05/18 05:24:17;;;;;;;1.43;1.07;;;14.00;88.10;;;;;;5094871;28;20546;-66
2022/05/18 05:26:42;;;;;;;1.40;1.10;;;14.00;89.20;;;;;;5094320;28;20518;-66
2022/05/18 05:29:09;;;;;;;0.90;0.90;;;14.00;88.30;;;;;;5094013;28;20843;-65
2022/05/18 05:31:36;;;;;;;1.57;1.10;;;14.40;87.60;;;;;;5094224;28;20633;-66
2022/05/18 05:34:02;;;;;;;2.60;1.00;;;14.40;86.60;;;;;;5094196;28;20449;-66
2022/05/18 05:36:29;;;;;;;1.40;1.10;;;14.80;86.70;;;;;;5094396;28;20403;-66
2022/05/18 05:38:54;;;;;;;1.10;1.00;;;14.90;86.30;;;;;;5093943;28;20461;-66
2022/05/18 05:41:20;;;;;;;1.27;1.07;;;15.10;85.90;;;;;;5094208;28;20423;-66
2022/05/18 05:43:46;;;;;;;1.00;0.90;;;15.00;86.00;;;;;;5094651;28;20180;-66
2022/05/18 05:46:17;;;;;;;1.40;1.30;;;14.80;86.50;;;;;;5094881;28;20566;-66
2022/05/18 05:48:44;;;;;;;3.13;1.17;;;15.10;86.60;;;;;;5077019;28;20204;-66
2022/05/18 05:51:12;;;;;;;1.73;1.37;;;15.00;86.70;;;;;;5091536;28;20444;-67
2022/05/18 05:53:39;;;;;;;1.40;1.30;;;15.20;87.40;;;;;;5086742;28;20927;-66
2022/05/18 05:56:06;;;;;;;0.90;0.80;;;15.00;86.30;;;;;;5088835;28;20400;-66
2022/05/18 05:58:33;;;;;;;1.67;1.33;;;14.80;86.30;;;;;;5093341;28;20501;-66
2022/05/18 06:00:59;;;;;;;1.67;1.57;;;14.70;87.60;;;;;;5076613;28;20444;-66
2022/05/18 06:03:25;;;;;;;2.90;1.40;;;15.30;86.80;;;;;;5073261;28;20444;-66
2022/05/18 06:05:51;;;;;;;2.50;2.07;;;15.40;85.50;;;;;;5073184;28;20967;-66
2022/05/18 06:08:16;;;;;;;4.07;2.83;;;15.40;85.90;;;;;;5079377;28;20501;-66
2022/05/18 06:10:42;;;;;;;3.70;1.17;;;16.20;86.30;;;;;;5093325;28;20211;-67
2022/05/18 06:13:09;;;;;;;1.73;1.10;;;16.30;83.80;;;;;;5093492;28;20181;-66
2022/05/18 06:15:35;;;;;;;3.07;2.80;;;16.90;83.90;;;;;;5093334;28;20263;-67
2022/05/18 06:18:01;;;;;;;2.60;2.30;;;17.40;83.10;;;;;;5093266;28;20442;-66
2022/05/18 06:20:27;;;;;;;1.00;0.90;;;17.50;81.70;;;;;;5093690;28;20190;-67
2022/05/18 06:22:52;;;;;;;4.77;3.23;;;17.80;81.20;;;;;;5093668;28;20558;-67
2022/05/18 06:25:18;;;;;;;2.37;1.60;;;17.80;79.70;;;;;;5095725;28;20257;-69
2022/05/18 06:27:44;;;;;;;1.83;1.60;;;18.40;77.60;;;;;;5093185;28;20273;-67
2022/05/18 06:30:13;;;;;;;1.30;1.10;;;18.20;77.50;;;;;;5093182;28;20174;-66
2022/05/18 06:32:38;;;;;;;1.67;1.10;;;18.30;78.70;;;;;;5093030;28;20931;-66
2022/05/18 06:35:05;;;;;;;3.10;2.40;;;18.30;77.20;;;;;;5093563;28;20488;-67
2022/05/18 06:37:31;;;;;;;7.50;5.03;;;17.60;80.40;;;;;;5093145;28;20290;-67
2022/05/18 06:39:56;;;;;;;2.50;1.73;;;18.30;81.50;;;;;;5092853;28;20932;-66
2022/05/18 06:42:22;;;;;;;2.60;1.60;;;18.70;78.90;;;;;;5092628;28;20190;-67
2022/05/18 06:44:47;;;;;;;1.83;1.10;;;19.50;78.00;;;;;;5092557;28;20602;-67
2022/05/18 06:47:14;;;;;;;2.70;2.20;;;19.40;74.80;;;;;;5092541;28;20223;-67
2022/05/18 06:49:40;;;;;;;2.50;1.50;;;19.70;76.60;;;;;;5092375;28;20181;-67
2022/05/18 06:52:06;;;;;;;1.73;0.90;;;19.70;75.10;;;;;;5091755;28;20990;-67
2022/05/18 06:54:32;;;;;;;12.07;7.40;;;20.30;74.70;;;;;;5092613;28;20468;-67
2022/05/18 06:56:58;;;;;;;1.50;1.40;;;21.00;74.50;;;;;;5092290;28;20406;-67
2022/05/18 06:59:23;;;;;;;2.77;2.50;;;21.20;72.00;;;;;;5091984;28;20184;-67
2022/05/18 07:01:50;;;;;;;5.70;3.20;;;21.30;73.10;;;;;;5092000;28;20207;-67
2022/05/18 07:04:15;;;;;;;2.87;1.83;;;21.70;71.30;;;;;;5092548;28;20179;-67
2022/05/18 07:06:43;;;;;;;2.50;2.00;;;20.70;72.30;;;;;;5092240;28;20443;-67
2022/05/18 07:09:11;;;;;;;2.17;1.97;;;21.30;72.60;;;;;;5092674;28;20169;-66
2022/05/18 07:11:37;;;;;;;2.90;1.63;;;20.70;73.90;;;;;;5092507;28;20431;-67
2022/05/18 07:14:05;;;;;;;2.80;2.50;;;21.00;73.10;;;;;;5092039;28;20404;-66
2022/05/18 07:16:32;;;;;;;3.57;2.83;;;22.20;71.20;;;;;;5092128;28;20170;-67
2022/05/18 07:18:58;;;;;;;1.63;1.53;;;21.50;70.10;;;;;;5092462;28;20885;-67
2022/05/18 07:21:25;;;;;;;1.70;1.20;;;21.40;72.30;;;;;;5091632;28;20432;-66
2022/05/18 07:23:51;;;;;;;2.13;1.53;;;22.20;67.90;;;;;;5091870;28;20464;-67
2022/05/18 07:26:18;;;;;;;1.20;1.10;;;22.30;69.60;;;;;;5091381;28;20405;-67
2022/05/18 07:28:44;;;;;;;1.80;1.33;;;22.00;67.30;;;;;;5091640;28;20955;-66
2022/05/18 07:31:10;;;;;;;1.40;1.30;;;20.90;71.20;;;;;;5090308;28;20437;-66
2022/05/18 07:33:35;;;;;;;1.70;1.40;;;21.50;71.50;;;;;;5090484;28;20892;-67
2022/05/18 07:36:02;;;;;;;1.90;1.70;;;22.10;71.80;;;;;;5091382;28;20169;-67
2022/05/18 07:38:29;;;;;;;2.20;1.37;;;22.80;71.10;;;;;;5091754;28;20213;-67
2022/05/18 07:40:55;;;;;;;4.97;1.97;;;23.80;65.00;;;;;;5091387;28;20430;-68
2022/05/18 07:43:21;;;;;;;1.83;1.70;;;22.80;66.40;;;;;;5091414;28;20497;-67
2022/05/18 07:45:48;;;;;;;1.60;1.50;;;22.50;68.10;;;;;;5091336;28;20172;-67
2022/05/18 07:48:14;;;;;;;1.93;1.60;;;23.30;66.80;;;;;;5091325;28;20207;-68
2022/05/18 07:50:40;;;;;;;1.63;1.53;;;23.30;64.50;;;;;;5091504;28;20468;-68
2022/05/18 07:53:06;;;;;;;1.67;1.57;;;22.50;68.40;;;;;;5091415;28;20858;-67
2022/05/18 07:55:32;;;;;;;1.50;1.30;;;23.50;66.90;;;;;;5091663;28;20165;-67
2022/05/18 07:57:57;;;;;;;1.73;1.40;;;22.80;66.30;;;;;;5091834;28;20177;-67
2022/05/18 08:00:24;;;;;;;1.53;1.43;;;23.60;65.30;;;;;;5090985;28;20548;-67
2022/05/18 08:02:50;;;;;;;2.40;1.23;;;23.10;65.90;;;;;;5091377;28;20495;-67
2022/05/18 08:05:17;;;;;;;2.27;1.43;;;23.00;69.00;;;;;;5091232;28;20818;-67
2022/05/18 08:07:45;;;;;;;1.47;1.30;;;22.50;66.40;;;;;;5091265;28;20462;-67
2022/05/18 08:15:42;;;;;;;3.73;1.90;;;22.10;69.70;;;;;;5091211;28;20464;-68
2022/05/18 08:18:07;;;;;;;1.73;1.47;;;22.10;70.70;;;;;;5091293;28;20415;-68
2022/05/18 08:20:33;;;;;;;1.80;1.70;;;23.30;69.50;;;;;;5091045;28;20194;-67
2022/05/18 08:22:59;;;;;;;1.77;1.63;;;23.70;69.60;;;;;;5091193;28;20170;-66
2022/05/18 08:25:24;;;;;;;12.53;2.20;;;23.60;66.30;;;;;;5090758;28;20541;-67
2022/05/18 08:27:50;;;;;;;1.50;1.40;;;23.30;65.80;;;;;;5091088;28;20447;-67
2022/05/18 08:30:20;;;;;;;1.63;1.53;;;23.50;67.40;;;;;;5091071;28;20538;-67
2022/05/18 08:32:46;;;;;;;2.13;1.93;;;23.50;66.50;;;;;;5091625;28;20180;-67
2022/05/18 08:35:16;;;;;;;1.80;1.30;;;23.20;68.20;;;;;;5090802;28;20399;-67
2022/05/18 08:37:44;;;;;;;3.00;2.30;;;22.70;68.70;;;;;;5090919;28;20783;-67
2022/05/18 08:40:27;;;;;;;1.70;1.60;;;22.80;70.20;;;;;;5090994;28;20499;-68
2022/05/18 08:42:52;;;;;;;1.77;1.57;;;23.20;70.40;;;;;;5090804;28;20395;-67
2022/05/18 08:45:18;;;;;;;2.33;1.70;;;23.60;68.80;;;;;;5090977;28;20487;-67
2022/05/18 08:48:01;;;;;;;1.80;1.67;;;23.20;69.70;;;;;;5091018;28;20282;-67
2022/05/18 08:50:28;;;;;;;1.90;1.70;;;23.20;71.40;;;;;;5090744;28;20275;-67
2022/05/18 08:53:28;;;;;;;2.70;1.73;;;23.00;71.10;;;;;;5090722;28;20448;-67
2022/05/18 08:55:54;;;;;;;1.60;1.50;;;23.40;69.20;;;;;;5090673;28;20399;-67
2022/05/18 08:58:35;;;;;;;2.53;1.90;;;22.70;72.30;;;;;;5090717;28;20406;-66
2022/05/18 09:01:06;;;;;;;2.37;1.77;;;23.80;72.90;;;;;;5086220;28;20583;-68
2022/05/18 09:03:37;;;;;;;1.80;1.70;;;23.90;72.40;;;;;;5092463;28;20461;-67
2022/05/18 09:06:21;;;;;;;2.50;1.73;;;23.70;70.50;;;;;;5091495;28;20731;-67
2022/05/18 09:11:48;;;;;;;1.70;1.60;;;24.40;68.80;;;;;;5070544;28;20492;-67
2022/05/18 09:14:17;;;;;;;1.73;1.63;;;23.80;69.70;;;;;;5072115;28;20775;-67
2022/05/18 09:17:01;;;;;;;2.77;2.00;;;24.00;69.90;;;;;;5078958;28;20407;-68
2022/05/18 09:19:29;;;;;;;2.67;2.47;;;24.30;68.30;;;;;;5077486;28;20403;-68
2022/05/18 09:22:03;;;;;;;2.23;2.00;;;24.10;71.00;;;;;;5073942;28;20451;-67
2022/05/18 09:25:01;;;;;;;2.73;2.53;;;24.40;70.70;;;;;;5073948;28;20416;-67
2022/05/18 09:27:45;;;;;;;2.10;1.90;;;23.70;72.50;;;;;;5074166;28;20436;-68
2022/05/18 09:30:17;;;;;;;1.70;1.60;;;24.10;72.20;;;;;;5073731;28;20769;-67
2022/05/18 09:33:15;;;;;;;2.83;2.63;;;24.00;72.50;;;;;;5073834;28;20537;-67
2022/05/18 09:36:14;;;;;;;3.17;2.00;;;23.60;73.50;;;;;;5084915;28;20466;-68
2022/05/18 09:38:56;;;;;;;2.27;1.97;;;24.20;70.70;;;;;;5093718;28;20842;-68
2022/05/18 09:41:25;;;;;;;6.43;2.53;;;24.10;72.60;;;;;;5073442;28;20738;-68
2022/05/18 09:44:08;;;;;;;2.00;1.80;;;23.40;74.60;;;;;;5073471;28;20831;-68
2022/05/18 09:46:35;;;;;;;2.30;1.97;;;24.20;72.50;;;;;;5073220;28;20410;-67
2022/05/18 09:49:22;;;;;;;5.60;1.80;;;24.30;73.10;;;;;;5075827;28;20415;-67
2022/05/18 09:51:48;;;;;;;1.80;1.70;;;23.90;74.70;;;;;;5093347;28;20435;-67
2022/05/18 09:54:13;;;;;;;3.50;2.43;;;24.10;72.90;;;;;;5093377;28;20693;-67
2022/05/18 09:56:55;;;;;;;2.80;1.90;;;23.70;73.60;;;;;;5093348;28;20213;-67
2022/05/18 09:59:28;;;;;;;2.43;2.23;;;24.00;75.10;;;;;;5093379;28;20230;-67
2022/05/18 10:07:27;;;;;;;2.40;2.20;;;23.20;79.30;;;;;;5072882;28;20463;-67
2022/05/18 10:10:11;;;;;;;3.00;2.10;;;23.00;82.30;;;;;;5084001;28;20440;-67
2022/05/18 10:12:42;;;;;;;2.63;2.43;;;22.60;82.40;;;;;;5089445;28;20409;-67
2022/05/18 10:15:25;;;;;;;2.33;2.20;;;22.50;84.90;;;;;;5092986;28;21063;-67
2022/05/18 10:17:55;;;;;;;2.80;2.50;;;22.60;84.30;;;;;;5093088;28;20506;-67
2022/05/18 10:20:28;;;;;;;2.80;2.20;;;22.60;85.70;;;;;;5093057;28;20424;-68
2022/05/18 10:22:55;;;;;;;3.70;3.13;;;23.00;84.20;;;;;;5092923;28;20403;-67
2022/05/18 10:25:40;;;;;;;2.83;2.53;;;23.30;83.90;;;;;;5091706;28;20475;-68
2022/05/18 10:28:18;;;;;;;3.60;2.80;;;22.90;82.60;;;;;;5092813;28;20544;-67
2022/05/18 10:30:58;;;;;;;4.23;2.87;;;23.00;84.20;;;;;;5092776;28;20474;-68
2022/05/18 10:33:31;;;;;;;3.40;3.03;;;22.90;84.50;;;;;;5092856;28;20832;-67
2022/05/18 10:36:06;;;;;;;3.50;2.63;;;22.70;85.60;;;;;;5092704;28;20400;-67
2022/05/18 10:38:34;;;;;;;3.90;3.00;;;22.90;85.90;;;;;;5092403;28;20403;-69
2022/05/18 10:41:05;;;;;;;3.40;3.10;;;22.90;87.20;;;;;;5092598;28;20415;-67
2022/05/18 10:43:39;;;;;;;3.63;3.20;;;23.10;86.60;;;;;;5091708;28;20463;-68
2022/05/18 10:46:16;;;;;;;6.73;4.00;;;22.70;87.70;;;;;;5092137;28;20408;-67
2022/05/18 10:49:00;;;;;;;3.30;2.90;;;22.40;89.10;;;;;;5091802;28;20978;-67
2022/05/18 10:51:45;;;;;;;3.10;2.90;;;22.50;90.20;;;;;;5092389;28;20483;-66
2022/05/18 10:54:26;;;;;;;4.30;3.33;;;22.30;90.40;;;;;;5092491;28;20426;-66
2022/05/18 10:57:07;;;;;;;3.50;3.20;;;22.10;90.90;;;;;;5092015;28;20411;-67
2022/05/18 10:59:52;;;;;;;3.67;3.17;;;22.60;90.70;;;;;;5091915;28;20404;-67
2022/05/18 11:02:40;;;;;;;4.90;3.30;;;22.80;90.20;;;;;;5091762;28;20450;-66
2022/05/18 11:05:23;;;;;;;6.70;3.20;;;23.20;89.20;;;;;;5092103;28;20456;-66
2022/05/18 11:07:49;;;;;;;5.20;3.80;;;22.80;89.20;;;;;;5092232;28;20545;-66
2022/05/18 11:10:15;;;;;;;4.40;3.70;;;22.80;90.30;;;;;;5092885;28;20847;-66
2022/05/18 11:13:06;;;;;;;4.60;3.60;;;23.20;90.30;;;;;;5091724;28;20392;-67
2022/05/18 11:15:47;;;;;;;4.40;3.33;;;22.90;90.30;;;;;;5091850;28;20171;-67
2022/05/18 11:18:30;;;;;;;3.50;3.20;;;23.10;89.10;;;;;;5091533;28;20417;-67
2022/05/18 11:21:07;;;;;;;3.97;3.57;;;23.20;87.50;;;;;;5091484;28;20438;-66
2022/05/18 11:23:53;;;;;;;2.30;2.10;;;23.20;85.50;;;;;;5091654;28;20394;-66
2022/05/18 11:26:52;;;;;;;4.67;2.30;;;23.50;84.50;;;;;;5091349;28;20412;-67
2022/05/18 11:29:48;;;;;;;3.67;3.37;;;23.60;83.10;;;;;;5091668;28;20449;-66
2022/05/18 11:32:30;;;;;;;2.97;2.67;;;23.70;81.70;;;;;;5091729;28;20450;-67
2022/05/18 11:35:07;;;;;;;3.47;2.90;;;23.50;82.90;;;;;;5091484;28;20460;-67
2022/05/18 11:37:54;;;;;;;5.17;2.73;;;23.40;84.30;;;;;;5091686;28;20392;-67
2022/05/18 11:41:15;;;;;;;2.73;2.50;;;23.60;80.70;;;;;;5091588;28;20795;-66
2022/05/18 11:43:53;;;;;;;3.93;2.73;;;23.60;80.90;;;;;;5028846;28;20490;-67
2022/05/18 11:46:55;;;;;;;2.67;2.47;;;23.70;80.90;;;;;;5091509;28;20400;-67
2022/05/18 11:49:53;;;;;;;3.33;2.40;;;23.60;82.40;;;;;;5087682;28;20966;-68
2022/05/18 11:52:48;;;;;;;3.10;2.53;;;23.70;81.60;;;;;;5091043;28;20427;-67
2022/05/18 11:55:33;;;;;;;4.43;3.37;;;23.50;82.00;;;;;;5090931;28;20445;-67
2022/05/18 11:58:47;;;;;;;16.13;9.97;;;23.60;84.20;;;;;;5091118;28;20498;-66
2022/05/18 12:01:52;;;;;;;5.40;4.03;;;23.60;84.70;;;;;;5091030;28;20458;-66
2022/05/18 12:04:24;;;;;;;10.80;8.00;;;23.80;85.00;;;;;;5070989;28;20774;-67
2022/05/18 12:07:04;;;;;;;4.27;3.20;;;24.00;83.90;;;;;;5078609;28;20448;-68
2022/05/18 12:10:00;;;;;;;2.93;2.73;;;23.70;83.50;;;;;;5091055;28;20405;-67
2022/05/18 12:12:44;;;;;;;3.33;2.87;;;24.00;83.70;;;;;;5090846;28;20403;-66
2022/05/18 12:15:45;;;;;;;7.23;3.30;;;23.80;83.80;;;;;;5090599;28;20945;-67
2022/05/18 12:18:32;;;;;;;3.70;2.53;;;23.90;84.10;;;;;;5091069;28;20393;-67
2022/05/18 12:21:17;;;;;;;3.20;2.90;;;24.30;84.10;;;;;;5090813;28;20481;-67
2022/05/18 12:23:48;;;;;;;2.87;2.67;;;24.30;84.00;;;;;;5090848;28;20393;-67
2022/05/18 12:26:15;;;;;;;4.20;3.80;;;24.40;84.20;;;;;;5090817;28;20437;-67
2022/05/18 12:28:43;;;;;;;3.37;2.60;;;24.60;84.20;;;;;;5090676;28;20495;-66
2022/05/18 12:31:09;;;;;;;2.20;2.00;;;24.60;82.60;;;;;;5090612;28;20423;-67
2022/05/18 12:33:44;;;;;;;3.03;2.30;;;24.60;81.50;;;;;;5090855;28;20401;-67
2022/05/18 12:36:16;;;;;;;2.30;1.90;;;24.70;80.30;;;;;;5090664;28;20453;-67
2022/05/18 12:38:55;;;;;;;3.13;2.60;;;24.40;79.60;;;;;;5091027;28;20534;-68
2022/05/18 12:41:26;;;;;;;2.97;2.60;;;24.30;80.30;;;;;;5090764;28;20427;-66
2022/05/18 12:44:06;;;;;;;3.13;2.93;;;24.30;80.90;;;;;;5090682;28;20644;-67
2022/05/18 12:46:37;;;;;;;3.07;2.20;;;24.30;81.00;;;;;;5091148;28;20890;-67
2022/05/18 12:49:38;;;;;;;3.97;2.47;;;24.50;81.10;;;;;;5092302;28;20402;-68
2022/05/18 12:52:15;;;;;;;2.97;2.43;;;24.20;78.70;;;;;;5038515;28;20482;-67
2022/05/18 12:55:22;;;;;;;6.63;3.00;;;24.20;79.70;;;;;;5094425;28;20486;-66
2022/05/18 12:58:02;;;;;;;2.80;2.60;;;24.20;80.10;;;;;;5093899;28;20420;-67
2022/05/18 13:00:28;;;;;;;3.00;2.60;;;24.30;80.90;;;;;;5094191;28;20457;-66
2022/05/18 13:03:19;;;;;;;2.60;2.40;;;24.50;81.20;;;;;;5094577;28;20414;-67
2022/05/18 13:05:54;;;;;;;2.97;2.67;;;24.70;81.50;;;;;;5094407;28;20184;-67
2022/05/18 13:08:19;;;;;;;2.50;2.30;;;24.60;79.90;;;;;;5094293;28;20455;-67
2022/05/18 13:11:25;;;;;;;2.70;2.40;;;24.30;81.00;;;;;;5094076;28;20425;-67
2022/05/18 13:14:06;;;;;;;2.43;2.23;;;24.50;82.00;;;;;;5094336;28;20161;-68
2022/05/18 13:16:37;;;;;;;2.80;2.60;;;24.70;81.50;;;;;;5094102;28;20391;-69
2022/05/18 13:19:14;;;;;;;3.67;2.77;;;24.70;82.10;;;;;;5102819;23;20920;-68
2022/05/18 13:21:45;;;;;;;3.47;2.77;;;24.80;82.10;;;;;;5034460;28;20504;-68
2022/05/18 13:24:15;;;;;;;2.47;2.17;;;24.70;81.30;;;;;;5034451;28;20402;-68
2022/05/18 13:26:44;;;;;;;2.30;2.10;;;25.10;81.80;;;;;;5034355;28;20403;-68